Time;durP1;ratioP1;P1;durP2;ratioP2;P2;SDS_P1;SDS_P2;PMS_P1;PMS_P2;Temp;Humidity;BMP_temperature;BMP_pressure;BME280_temperature;BME280_humidity;BME280_pressure;Samples;Min_cycle;Max_cycle;Signal;HPM_P1;HPM_P2
2021/08/24 00:02:14;;;;;;;3.23;2.93;;;23.10;66.30;;;;;;5061710;28;20460;-45
2021/08/24 00:04:46;;;;;;;4.50;3.70;;;23.00;67.00;;;;;;5061506;28;20449;-46
2021/08/24 00:07:17;;;;;;;4.33;3.63;;;22.90;65.50;;;;;;5051053;28;20433;-44
2021/08/24 00:09:48;;;;;;;4.50;3.33;;;22.90;65.30;;;;;;5055773;28;20470;-43
2021/08/24 00:12:19;;;;;;;5.50;3.40;;;22.80;65.10;;;;;;5061348;28;20495;-46
2021/08/24 00:14:50;;;;;;;5.73;4.10;;;22.80;65.80;;;;;;5061505;27;20491;-45
2021/08/24 00:17:23;;;;;;;3.73;3.33;;;22.80;65.80;;;;;;5051030;28;20484;-42
2021/08/24 00:19:55;;;;;;;5.23;4.07;;;22.80;66.40;;;;;;5056227;28;20480;-46
2021/08/24 00:22:26;;;;;;;3.90;3.53;;;22.80;66.00;;;;;;5059201;28;20455;-43
2021/08/24 00:24:56;;;;;;;4.27;3.43;;;22.80;64.60;;;;;;5041120;28;20440;-45
2021/08/24 00:27:27;;;;;;;5.53;4.53;;;22.60;65.00;;;;;;5046479;28;20452;-39
2021/08/24 00:29:58;;;;;;;4.33;3.40;;;22.50;65.60;;;;;;5046299;28;20479;-41
2021/08/24 00:32:31;;;;;;;5.23;4.17;;;22.60;63.70;;;;;;5049804;28;20516;-46
2021/08/24 00:35:02;;;;;;;4.77;3.60;;;22.60;63.40;;;;;;5041499;28;20541;-39
2021/08/24 00:37:33;;;;;;;4.17;3.77;;;22.50;63.00;;;;;;5052305;28;20443;-39
2021/08/24 00:40:06;;;;;;;4.33;3.93;;;22.60;63.90;;;;;;5061790;28;20897;-40
2021/08/24 00:42:38;;;;;;;6.20;4.10;;;22.50;65.20;;;;;;5042244;28;20456;-44
2021/08/24 00:45:13;;;;;;;5.87;3.47;;;22.50;64.40;;;;;;5041159;28;20457;-42
2021/08/24 00:47:48;;;;;;;3.97;3.60;;;22.40;64.80;;;;;;5052542;28;20456;-43
2021/08/24 00:50:26;;;;;;;5.03;3.60;;;22.40;64.40;;;;;;5058794;27;20572;-44
2021/08/24 00:52:58;;;;;;;6.00;4.73;;;22.30;65.90;;;;;;5025688;28;20458;-42
2021/08/24 00:55:30;;;;;;;5.20;3.53;;;22.30;64.90;;;;;;5041538;28;20512;-44
2021/08/24 00:58:06;;;;;;;5.27;4.00;;;22.30;64.90;;;;;;5054222;28;20495;-43
2021/08/24 01:00:37;;;;;;;3.77;3.47;;;22.30;64.90;;;;;;5058939;28;20455;-49
2021/08/24 01:03:12;;;;;;;4.00;3.60;;;22.30;62.50;;;;;;5041329;28;20841;-48
2021/08/24 01:05:46;;;;;;;4.93;3.67;;;22.20;63.40;;;;;;5041333;28;20435;-48
2021/08/24 01:08:32;;;;;;;4.40;4.00;;;22.10;63.40;;;;;;5055135;28;20431;-41
2021/08/24 01:11:13;;;;;;;4.37;3.97;;;22.10;64.00;;;;;;5055811;28;20484;-44
2021/08/24 01:13:48;;;;;;;4.70;3.73;;;21.90;64.30;;;;;;5050582;28;20434;-44
2021/08/24 01:16:27;;;;;;;4.90;4.33;;;21.90;65.40;;;;;;5061252;28;20448;-47
2021/08/24 01:19:14;;;;;;;7.43;3.97;;;22.00;67.10;;;;;;5041884;28;20517;-47
2021/08/24 01:22:15;;;;;;;4.67;4.17;;;21.90;67.90;;;;;;5051372;28;20476;-44
2021/08/24 01:24:51;;;;;;;7.47;4.30;;;21.90;68.60;;;;;;5059721;28;20427;-43
2021/08/24 01:27:28;;;;;;;4.17;3.57;;;21.90;68.00;;;;;;5042197;28;20559;-44
2021/08/24 01:30:17;;;;;;;5.77;4.20;;;21.80;68.70;;;;;;5060975;28;20463;-41
2021/08/24 01:33:15;;;;;;;3.90;3.60;;;21.70;69.50;;;;;;5040968;28;20589;-40
2021/08/24 01:36:11;;;;;;;5.37;4.03;;;21.70;70.20;;;;;;5060467;28;20423;-44
2021/08/24 01:38:51;;;;;;;7.20;4.90;;;21.60;71.00;;;;;;5044945;27;20472;-44
2021/08/24 01:41:29;;;;;;;6.17;4.37;;;21.50;70.90;;;;;;5034252;28;20423;-44
2021/08/24 01:44:04;;;;;;;4.53;3.93;;;21.40;71.40;;;;;;5059928;28;20448;-41
2021/08/24 01:46:43;;;;;;;6.60;3.87;;;21.40;71.10;;;;;;5047117;28;20757;-39
2021/08/24 01:49:17;;;;;;;5.53;4.23;;;21.40;72.00;;;;;;5037817;28;20485;-40
2021/08/24 01:51:53;;;;;;;4.73;4.23;;;21.30;72.20;;;;;;5049202;28;20492;-44
2021/08/24 01:54:28;;;;;;;5.50;4.40;;;21.30;72.30;;;;;;5045880;28;20598;-41
2021/08/24 01:57:00;;;;;;;5.17;4.67;;;21.20;72.80;;;;;;5040943;28;20463;-45
2021/08/24 01:59:36;;;;;;;4.63;4.00;;;21.10;73.20;;;;;;5059703;28;20522;-40
2021/08/24 02:02:10;;;;;;;5.20;4.60;;;21.10;73.60;;;;;;5060111;28;20436;-41
2021/08/24 02:04:50;;;;;;;4.60;3.97;;;21.00;73.70;;;;;;5059907;28;20459;-40
2021/08/24 02:07:24;;;;;;;4.23;3.80;;;21.00;74.10;;;;;;5054776;28;20455;-40
2021/08/24 02:10:00;;;;;;;4.40;4.00;;;21.00;73.50;;;;;;5039773;28;20505;-44
2021/08/24 02:12:36;;;;;;;5.30;4.27;;;20.90;74.40;;;;;;5039927;28;20458;-41
2021/08/24 02:15:08;;;;;;;4.97;3.90;;;20.80;75.10;;;;;;5058161;28;20452;-47
2021/08/24 02:17:43;;;;;;;4.80;3.77;;;20.80;75.10;;;;;;5052141;28;20453;-41
2021/08/24 02:20:21;;;;;;;4.90;4.10;;;20.80;75.80;;;;;;5040260;28;20485;-40
2021/08/24 02:22:58;;;;;;;4.87;3.30;;;20.60;76.70;;;;;;5039427;28;20457;-41
2021/08/24 02:25:32;;;;;;;6.23;3.87;;;20.50;77.90;;;;;;5039753;28;20476;-42
2021/08/24 02:28:08;;;;;;;6.07;4.07;;;20.50;78.20;;;;;;5049724;28;20471;-41
2021/08/24 02:30:46;;;;;;;7.27;3.80;;;20.50;77.80;;;;;;5058417;28;20486;-39
2021/08/24 02:33:18;;;;;;;5.57;3.63;;;20.50;78.60;;;;;;5057280;28;20536;-45
2021/08/24 02:35:55;;;;;;;5.77;3.80;;;20.40;79.30;;;;;;5045292;28;20480;-40
2021/08/24 02:38:30;;;;;;;5.17;4.00;;;20.30;79.40;;;;;;5058239;28;20444;-41
2021/08/24 02:41:06;;;;;;;4.97;3.83;;;20.20;80.10;;;;;;5044305;28;20473;-40
2021/08/24 02:43:44;;;;;;;5.80;3.87;;;20.20;80.80;;;;;;5027753;28;20499;-40
2021/08/24 02:46:20;;;;;;;5.53;4.37;;;20.20;80.90;;;;;;5059048;28;20456;-41
2021/08/24 02:48:56;;;;;;;6.17;4.13;;;20.00;82.20;;;;;;5052576;28;20453;-40
2021/08/24 02:51:27;;;;;;;6.43;3.33;;;20.00;82.80;;;;;;5057089;28;20459;-41
2021/08/24 02:54:04;;;;;;;5.97;3.70;;;20.00;83.20;;;;;;5053272;28;20529;-41
2021/08/24 02:56:35;;;;;;;4.47;2.87;;;19.90;83.70;;;;;;5039385;28;20449;-41
2021/08/24 02:59:06;;;;;;;7.50;3.17;;;19.90;84.20;;;;;;5042343;28;20463;-40
2021/08/24 03:01:37;;;;;;;5.93;3.10;;;19.70;84.90;;;;;;5058706;28;20448;-43
2021/08/24 03:04:10;;;;;;;5.67;3.10;;;19.70;85.70;;;;;;5059254;28;20466;-41
2021/08/24 03:06:45;;;;;;;4.60;3.53;;;19.60;86.30;;;;;;5058486;28;20528;-40
2021/08/24 03:09:21;;;;;;;5.20;3.23;;;19.50;87.00;;;;;;5058881;28;20480;-42
2021/08/24 03:11:57;;;;;;;6.40;3.27;;;19.50;87.80;;;;;;5042950;28;20464;-48
2021/08/24 03:14:33;;;;;;;4.87;3.53;;;19.40;88.50;;;;;;5051249;28;20567;-40
2021/08/24 03:17:09;;;;;;;4.73;3.20;;;19.30;89.00;;;;;;5062437;28;20452;-38
2021/08/24 03:19:43;;;;;;;4.50;3.10;;;19.30;89.40;;;;;;5055548;28;20477;-41
2021/08/24 03:22:15;;;;;;;4.13;3.30;;;19.20;89.50;;;;;;5042792;28;20488;-42
2021/08/24 03:24:48;;;;;;;3.70;3.00;;;19.20;90.00;;;;;;5041991;28;20437;-41
2021/08/24 03:27:19;;;;;;;4.07;3.00;;;19.10;90.30;;;;;;5041488;28;20510;-40
2021/08/24 03:29:59;;;;;;;6.57;3.00;;;19.10;90.50;;;;;;5044532;28;20485;-39
2021/08/24 03:32:31;;;;;;;4.00;3.03;;;19.00;90.90;;;;;;5049236;28;20488;-39
2021/08/24 03:35:01;;;;;;;3.57;3.27;;;18.90;91.20;;;;;;5050984;28;20496;-40
2021/08/24 03:37:33;;;;;;;5.87;2.90;;;18.80;91.80;;;;;;5042157;28;20432;-40
2021/08/24 03:40:08;;;;;;;5.63;3.40;;;18.70;91.90;;;;;;5049709;28;20486;-42
2021/08/24 03:42:39;;;;;;;5.97;3.33;;;18.70;92.30;;;;;;5062153;28;20451;-50
2021/08/24 03:45:14;;;;;;;5.40;3.17;;;18.70;92.30;;;;;;5046606;28;20453;-46
2021/08/24 03:47:45;;;;;;;5.60;3.17;;;18.60;92.40;;;;;;5042114;28;20633;-46
2021/08/24 03:50:16;;;;;;;5.00;3.47;;;18.60;92.70;;;;;;5050940;28;20456;-45
2021/08/24 03:52:47;;;;;;;5.97;3.17;;;18.60;93.00;;;;;;5060827;28;20479;-46
2021/08/24 03:55:19;;;;;;;5.57;3.00;;;18.50;93.30;;;;;;5061460;28;20452;-41
2021/08/24 03:57:50;;;;;;;5.13;3.30;;;18.50;93.40;;;;;;5057090;28;20446;-43
2021/08/24 04:00:22;;;;;;;5.63;3.80;;;18.40;93.80;;;;;;5051533;28;20516;-47
2021/08/24 04:02:53;;;;;;;4.23;3.17;;;18.40;94.10;;;;;;5061719;28;20480;-42
2021/08/24 04:05:24;;;;;;;4.27;2.90;;;18.40;94.30;;;;;;5061480;28;20456;-42
2021/08/24 04:07:56;;;;;;;5.27;3.83;;;18.30;94.40;;;;;;5055900;28;20459;-45
2021/08/24 04:10:29;;;;;;;5.07;3.00;;;18.20;94.90;;;;;;5051763;28;20508;-43
2021/08/24 04:13:00;;;;;;;4.97;3.13;;;18.20;94.90;;;;;;5061244;28;20476;-42
2021/08/24 04:15:31;;;;;;;5.33;3.33;;;18.20;95.10;;;;;;5061314;28;20925;-39
2021/08/24 04:18:02;;;;;;;4.80;3.73;;;18.20;95.30;;;;;;5055918;28;20446;-39
2021/08/24 04:20:34;;;;;;;3.63;3.33;;;18.10;95.70;;;;;;5051068;28;20476;-42
2021/08/24 04:23:05;;;;;;;6.87;3.93;;;18.10;96.00;;;;;;5056145;28;20466;-43
2021/08/24 04:25:38;;;;;;;5.23;3.30;;;18.00;96.20;;;;;;5054576;28;20438;-40
2021/08/24 04:28:09;;;;;;;6.13;2.97;;;18.00;96.30;;;;;;5031310;28;20791;-45
2021/08/24 04:30:40;;;;;;;6.70;3.30;;;18.00;96.70;;;;;;5041651;28;20453;-44
2021/08/24 04:33:11;;;;;;;4.97;3.50;;;17.90;96.90;;;;;;5057109;28;20480;-41
2021/08/24 04:35:42;;;;;;;4.90;3.30;;;17.90;97.00;;;;;;5047249;28;20457;-43
2021/08/24 04:38:13;;;;;;;4.07;3.03;;;17.80;97.30;;;;;;5060411;28;20779;-44
2021/08/24 04:40:46;;;;;;;5.20;3.87;;;17.80;97.30;;;;;;5060959;28;20475;-42
2021/08/24 04:43:18;;;;;;;4.03;2.70;;;17.80;97.50;;;;;;5059036;28;20817;-46
2021/08/24 04:45:50;;;;;;;6.57;3.50;;;17.70;97.70;;;;;;5052918;28;20453;-41
2021/08/24 04:48:21;;;;;;;4.50;3.50;;;17.70;98.00;;;;;;5041156;28;20492;-47
2021/08/24 04:50:55;;;;;;;5.83;3.80;;;17.60;98.20;;;;;;5041500;28;20836;-43
2021/08/24 04:53:26;;;;;;;5.33;2.80;;;17.60;98.50;;;;;;5041286;28;20566;-42
2021/08/24 04:55:59;;;;;;;6.30;3.53;;;17.60;98.80;;;;;;5048141;28;20460;-40
2021/08/24 04:58:30;;;;;;;5.40;3.27;;;17.50;99.00;;;;;;5042406;28;20946;-41
2021/08/24 05:01:01;;;;;;;7.07;3.53;;;17.50;99.40;;;;;;5041268;28;20477;-41
2021/08/24 05:03:34;;;;;;;3.93;2.90;;;17.40;99.60;;;;;;5028152;28;20495;-43
2021/08/24 05:06:05;;;;;;;4.43;3.63;;;17.40;99.80;;;;;;5052679;28;20498;-43
2021/08/24 05:08:35;;;;;;;8.40;3.63;;;17.30;99.90;;;;;;5040467;28;20483;-43
2021/08/24 05:11:08;;;;;;;6.10;3.53;;;17.30;99.90;;;;;;5040814;28;20566;-42
2021/08/24 05:13:39;;;;;;;7.07;3.30;;;17.30;99.90;;;;;;5025801;28;20780;-42
2021/08/24 05:16:10;;;;;;;5.07;3.20;;;17.20;99.90;;;;;;5042090;28;20517;-43
2021/08/24 05:18:42;;;;;;;6.47;3.37;;;17.20;99.90;;;;;;5040866;28;20494;-40
2021/08/24 05:21:15;;;;;;;7.43;3.50;;;17.20;99.90;;;;;;5040769;28;20481;-42
2021/08/24 05:23:46;;;;;;;7.30;4.47;;;17.10;99.90;;;;;;5044888;28;20943;-41
2021/08/24 05:26:21;;;;;;;8.83;3.67;;;17.10;99.90;;;;;;5043577;28;20455;-42
2021/08/24 05:28:52;;;;;;;6.57;3.70;;;17.10;99.90;;;;;;5037996;28;20451;-42
2021/08/24 05:31:23;;;;;;;6.83;3.17;;;17.00;99.90;;;;;;5060283;28;20463;-39
2021/08/24 05:33:54;;;;;;;7.53;3.00;;;17.00;99.90;;;;;;5059962;28;20563;-42
2021/08/24 05:36:25;;;;;;;3.60;2.83;;;17.00;99.90;;;;;;5050460;28;20533;-43
2021/08/24 05:38:56;;;;;;;4.90;3.10;;;17.00;99.90;;;;;;5042518;28;20949;-45
2021/08/24 05:41:29;;;;;;;5.30;3.80;;;16.90;99.90;;;;;;5059604;28;20471;-40
2021/08/24 05:44:00;;;;;;;4.07;2.97;;;16.90;99.90;;;;;;5054832;28;20445;-43
2021/08/24 05:46:31;;;;;;;6.33;3.33;;;16.90;99.90;;;;;;5049656;28;20452;-44
2021/08/24 05:49:02;;;;;;;3.40;3.10;;;16.80;99.90;;;;;;5054864;28;20487;-42
2021/08/24 05:51:33;;;;;;;5.83;3.40;;;16.80;99.90;;;;;;5059571;28;20556;-40
2021/08/24 05:54:04;;;;;;;6.97;3.20;;;16.70;99.90;;;;;;5050415;28;20530;-43
2021/08/24 05:56:37;;;;;;;7.20;3.60;;;16.70;99.90;;;;;;5040625;28;20469;-42
2021/08/24 05:59:07;;;;;;;4.40;3.20;;;16.70;99.90;;;;;;5044154;28;20468;-44
2021/08/24 06:01:38;;;;;;;4.83;3.90;;;16.70;99.90;;;;;;5042765;28;20449;-40
2021/08/24 06:04:10;;;;;;;6.80;3.30;;;16.70;99.90;;;;;;5045109;28;20464;-42
2021/08/24 06:06:44;;;;;;;7.90;3.50;;;16.60;99.90;;;;;;5058329;28;20778;-41
2021/08/24 06:09:15;;;;;;;8.10;3.63;;;16.60;99.90;;;;;;5054839;28;21094;-41
2021/08/24 06:11:52;;;;;;;8.47;3.63;;;16.50;99.90;;;;;;5057071;28;20464;-40
2021/08/24 06:14:26;;;;;;;4.77;3.47;;;16.50;99.90;;;;;;5060180;28;20535;-42
2021/08/24 06:16:57;;;;;;;7.27;3.67;;;16.50;99.90;;;;;;5049867;28;20464;-44
2021/08/24 06:19:29;;;;;;;4.40;3.30;;;16.50;99.90;;;;;;5045158;28;20492;-42
2021/08/24 06:22:02;;;;;;;5.10;3.33;;;16.40;99.90;;;;;;5055380;28;20460;-43
2021/08/24 06:24:35;;;;;;;4.87;3.50;;;16.40;99.90;;;;;;5039313;28;20504;-46
2021/08/24 06:27:08;;;;;;;6.30;4.00;;;16.30;99.90;;;;;;5038618;28;20484;-43
2021/08/24 06:29:39;;;;;;;3.77;3.07;;;16.30;99.90;;;;;;5050523;28;20469;-44
2021/08/24 06:32:25;;;;;;;6.03;3.77;;;16.20;99.90;;;;;;5040181;28;20496;-42
2021/08/24 06:34:56;;;;;;;5.33;3.17;;;16.10;99.90;;;;;;5039762;28;20489;-45
2021/08/24 06:37:27;;;;;;;6.80;3.20;;;16.10;99.90;;;;;;5055484;28;20551;-39
2021/08/24 06:39:58;;;;;;;4.47;3.27;;;16.10;99.90;;;;;;5056101;28;20478;-40
2021/08/24 06:42:38;;;;;;;6.13;3.37;;;16.10;99.90;;;;;;5042229;28;21060;-43
2021/08/24 06:45:12;;;;;;;6.33;3.50;;;16.10;99.90;;;;;;5058941;28;20471;-39
2021/08/24 06:47:43;;;;;;;5.50;3.50;;;16.00;99.90;;;;;;5065599;28;20532;-40
2021/08/24 06:50:14;;;;;;;7.23;3.77;;;15.90;99.90;;;;;;5050599;28;20532;-39
2021/08/24 06:52:45;;;;;;;5.97;3.77;;;15.90;99.90;;;;;;5065128;28;20448;-40
2021/08/24 06:55:17;;;;;;;4.87;3.40;;;15.80;99.90;;;;;;5066177;28;20487;-41
2021/08/24 06:57:49;;;;;;;6.33;3.93;;;15.60;99.90;;;;;;5048961;28;20835;-41
2021/08/24 07:00:24;;;;;;;7.70;3.67;;;15.70;99.90;;;;;;5037797;28;20489;-42
2021/08/24 07:02:55;;;;;;;5.40;3.23;;;15.70;99.90;;;;;;5065917;28;20444;-42
2021/08/24 07:05:29;;;;;;;6.93;4.10;;;15.70;99.90;;;;;;5066063;28;20459;-39
2021/08/24 07:08:00;;;;;;;4.23;3.47;;;15.60;99.90;;;;;;5047844;28;20453;-40
2021/08/24 07:10:31;;;;;;;5.10;3.47;;;15.60;99.90;;;;;;5059141;28;20449;-43
2021/08/24 07:13:04;;;;;;;4.40;3.57;;;15.60;99.90;;;;;;5045925;28;20449;-43
2021/08/24 07:15:36;;;;;;;5.50;3.53;;;15.60;99.90;;;;;;5046450;28;20477;-44
2021/08/24 07:18:07;;;;;;;6.67;3.60;;;15.60;99.90;;;;;;5046364;28;20476;-40
2021/08/24 07:20:38;;;;;;;8.93;4.20;;;15.50;99.90;;;;;;5053485;28;20508;-42
2021/08/24 07:23:10;;;;;;;4.57;3.93;;;15.50;99.90;;;;;;5064989;28;20449;-38
2021/08/24 07:25:41;;;;;;;5.67;3.77;;;15.50;99.90;;;;;;5047315;28;20449;-42
2021/08/24 07:28:14;;;;;;;4.50;3.30;;;15.40;99.90;;;;;;5032470;28;20441;-39
2021/08/24 07:30:48;;;;;;;4.60;3.73;;;15.30;99.90;;;;;;5059166;28;20472;-38
2021/08/24 07:33:19;;;;;;;5.50;3.70;;;15.30;99.90;;;;;;5065439;28;20486;-38
2021/08/24 07:35:51;;;;;;;4.70;3.40;;;15.30;99.90;;;;;;5065077;28;20513;-40
2021/08/24 07:38:22;;;;;;;5.17;3.30;;;15.20;99.90;;;;;;5064940;28;20511;-39
2021/08/24 07:40:53;;;;;;;5.77;4.30;;;15.20;99.90;;;;;;5062594;28;20452;-39
2021/08/24 07:43:26;;;;;;;7.33;4.00;;;15.10;99.90;;;;;;5045689;28;20441;-39
2021/08/24 07:45:57;;;;;;;4.47;3.47;;;15.00;99.90;;;;;;5064155;28;20528;-40
2021/08/24 07:48:28;;;;;;;3.50;3.20;;;14.90;99.90;;;;;;5059754;28;20449;-39
2021/08/24 07:50:59;;;;;;;5.77;3.57;;;14.80;99.90;;;;;;5048291;28;20456;-40
2021/08/24 07:53:30;;;;;;;4.10;3.47;;;14.80;99.90;;;;;;5063354;27;20505;-39
2021/08/24 07:56:02;;;;;;;11.17;4.83;;;14.70;99.90;;;;;;5060662;28;20499;-38
2021/08/24 07:58:34;;;;;;;5.10;4.30;;;14.60;99.90;;;;;;5061667;28;20487;-39
2021/08/24 08:01:05;;;;;;;8.57;4.57;;;14.50;99.90;;;;;;5060613;28;20440;-39
2021/08/24 08:03:37;;;;;;;9.00;3.20;;;14.50;99.90;;;;;;5061844;28;20516;-39
2021/08/24 08:06:08;;;;;;;5.83;3.80;;;14.40;99.90;;;;;;5061607;28;20465;-38
2021/08/24 08:08:39;;;;;;;4.80;3.93;;;14.40;99.90;;;;;;5056007;28;20580;-38
2021/08/24 08:11:10;;;;;;;4.60;3.80;;;14.40;99.90;;;;;;5051033;28;20527;-38
2021/08/24 08:13:42;;;;;;;9.10;4.83;;;14.40;99.90;;;;;;5062087;28;20920;-40
2021/08/24 08:16:13;;;;;;;8.20;4.57;;;14.40;99.90;;;;;;5061298;28;20472;-39
2021/08/24 08:18:44;;;;;;;8.10;4.07;;;14.40;99.90;;;;;;5061914;28;20459;-39
2021/08/24 08:21:15;;;;;;;5.83;4.60;;;14.30;99.90;;;;;;5051221;28;20485;-39
2021/08/24 08:23:46;;;;;;;7.13;4.37;;;14.30;99.90;;;;;;5041814;28;20469;-38
2021/08/24 08:26:17;;;;;;;6.23;3.40;;;14.20;99.90;;;;;;5048008;28;20481;-41
2021/08/24 08:28:51;;;;;;;7.17;3.90;;;14.10;99.90;;;;;;5047702;28;20498;-39
2021/08/24 08:31:25;;;;;;;4.77;4.20;;;14.10;99.90;;;;;;5050882;28;20445;-38
2021/08/24 08:33:56;;;;;;;9.50;3.93;;;14.10;99.90;;;;;;5044333;28;20488;-38
2021/08/24 08:36:28;;;;;;;5.13;3.67;;;14.10;99.90;;;;;;5042089;28;20497;-38
2021/08/24 08:38:58;;;;;;;5.87;3.47;;;14.00;99.90;;;;;;5047669;28;20488;-39
2021/08/24 08:41:35;;;;;;;6.20;4.27;;;14.00;99.90;;;;;;5050522;28;20504;-39
2021/08/24 08:44:23;;;;;;;5.13;4.30;;;13.90;99.90;;;;;;5059692;28;20500;-40
2021/08/24 08:47:00;;;;;;;5.53;3.40;;;13.90;99.90;;;;;;5061897;28;20476;-38
2021/08/24 08:49:49;;;;;;;4.73;3.53;;;13.80;99.90;;;;;;5059745;28;20445;-42
2021/08/24 08:52:26;;;;;;;6.73;4.20;;;13.80;99.90;;;;;;5057555;28;20511;-39
2021/08/24 08:55:04;;;;;;;9.73;5.33;;;13.80;99.90;;;;;;5041186;28;20505;-39
2021/08/24 08:57:40;;;;;;;6.43;4.00;;;13.70;99.90;;;;;;5053991;28;20494;-39
2021/08/24 09:00:19;;;;;;;6.13;4.70;;;13.60;99.90;;;;;;5044425;28;20453;-42
2021/08/24 09:02:53;;;;;;;5.67;3.90;;;13.60;99.90;;;;;;5041439;28;20453;-41
2021/08/24 09:05:26;;;;;;;9.23;3.77;;;13.50;99.90;;;;;;5041254;28;20449;-42
2021/08/24 09:07:59;;;;;;;9.07;4.93;;;13.40;99.90;;;;;;5041344;28;20450;-39
2021/08/24 09:10:37;;;;;;;5.83;4.50;;;13.40;99.90;;;;;;5057762;28;20452;-42
2021/08/24 09:13:09;;;;;;;7.73;4.20;;;13.50;99.90;;;;;;5040849;28;20540;-44
2021/08/24 09:15:46;;;;;;;7.73;4.03;;;13.30;99.90;;;;;;5041249;28;20510;-43
2021/08/24 09:18:20;;;;;;;7.10;4.47;;;13.20;99.90;;;;;;5041355;28;20453;-40
2021/08/24 09:21:01;;;;;;;5.17;4.40;;;13.20;99.90;;;;;;5060695;28;20479;-43
2021/08/24 09:23:32;;;;;;;5.60;3.80;;;13.20;99.90;;;;;;5060102;28;20468;-39
2021/08/24 09:26:16;;;;;;;6.10;4.50;;;13.20;99.90;;;;;;5049973;28;20544;-41
2021/08/24 09:28:49;;;;;;;6.50;4.70;;;13.20;99.90;;;;;;5029770;28;20877;-40
2021/08/24 09:31:23;;;;;;;7.10;4.47;;;13.10;99.90;;;;;;5057927;28;20480;-38
2021/08/24 09:33:55;;;;;;;7.20;4.50;;;13.00;99.90;;;;;;5060579;28;20804;-46
2021/08/24 09:36:26;;;;;;;9.70;4.70;;;13.00;99.90;;;;;;5060262;28;20506;-41
2021/08/24 09:38:59;;;;;;;7.50;4.70;;;12.90;99.90;;;;;;5055059;28;20441;-38
2021/08/24 09:41:31;;;;;;;5.40;3.63;;;13.00;99.90;;;;;;5040612;28;20518;-40
2021/08/24 09:44:24;;;;;;;7.80;4.53;;;13.00;99.90;;;;;;5040995;28;20446;-40
2021/08/24 09:47:08;;;;;;;8.37;4.27;;;12.90;99.90;;;;;;5044970;28;20563;-46
2021/08/24 09:49:42;;;;;;;6.00;4.50;;;12.90;99.90;;;;;;5057918;28;20456;-39
2021/08/24 09:52:20;;;;;;;7.73;4.97;;;12.90;99.90;;;;;;5060019;28;20456;-38
2021/08/24 09:54:56;;;;;;;8.20;4.00;;;12.90;99.90;;;;;;5059773;28;20516;-39
2021/08/24 09:57:30;;;;;;;6.80;4.53;;;12.80;99.90;;;;;;5060025;28;21224;-40
2021/08/24 10:00:20;;;;;;;8.37;5.17;;;12.70;99.90;;;;;;5050947;28;20443;-40
2021/08/24 10:02:54;;;;;;;5.40;4.47;;;12.60;99.90;;;;;;5059885;28;20457;-39
2021/08/24 10:05:38;;;;;;;9.90;4.80;;;12.60;99.90;;;;;;5050826;28;20532;-41
2021/08/24 10:08:30;;;;;;;5.50;4.27;;;12.50;99.90;;;;;;5040044;28;20464;-40
2021/08/24 10:11:07;;;;;;;9.23;4.33;;;12.50;99.90;;;;;;5026146;28;20474;-40
2021/08/24 10:13:40;;;;;;;9.57;4.47;;;12.50;99.90;;;;;;5040080;28;20839;-39
2021/08/24 10:16:18;;;;;;;4.93;4.10;;;12.50;99.90;;;;;;5039976;28;20493;-38
2021/08/24 10:18:54;;;;;;;9.43;5.70;;;12.40;99.90;;;;;;5026610;28;20238;-38
2021/08/24 10:21:35;;;;;;;8.30;4.87;;;12.20;99.90;;;;;;5059861;28;20268;-38
2021/08/24 10:24:12;;;;;;;7.00;5.05;;;12.20;99.90;;;;;;5059248;28;20444;-39
2021/08/24 10:26:43;;;;;;;7.23;4.90;;;12.20;99.90;;;;;;5036736;28;20210;-40
2021/08/24 10:29:16;;;;;;;8.20;4.60;;;12.20;99.90;;;;;;5027022;28;20487;-39
2021/08/24 10:31:54;;;;;;;8.70;4.80;;;12.20;99.90;;;;;;5041911;28;20473;-40
2021/08/24 10:34:35;;;;;;;5.70;4.18;;;12.20;99.90;;;;;;5059252;28;20455;-39
2021/08/24 10:37:31;;;;;;;6.90;5.23;;;12.10;99.90;;;;;;5059445;28;20232;-38
2021/08/24 10:40:25;;;;;;;5.80;4.63;;;12.10;99.90;;;;;;5051537;28;20941;-39
2021/08/24 10:43:18;;;;;;;13.23;5.03;;;12.00;99.90;;;;;;5040335;28;20255;-40
2021/08/24 10:46:07;;;;;;;6.55;4.50;;;12.00;99.90;;;;;;5046931;28;20441;-40
2021/08/24 10:48:38;;;;;;;4.95;4.18;;;11.90;99.90;;;;;;5054654;28;20199;-38
2021/08/24 10:51:20;;;;;;;7.27;4.90;;;11.90;99.90;;;;;;5056194;28;20218;-39
2021/08/24 10:54:07;;;;;;;8.90;4.60;;;11.90;99.90;;;;;;5039107;28;20460;-42
2021/08/24 10:56:44;;;;;;;6.40;5.77;;;11.90;99.90;;;;;;5039124;28;20593;-39
2021/08/24 10:59:27;;;;;;;6.90;4.63;;;11.90;99.90;;;;;;5040576;28;20464;-41
2021/08/24 11:02:03;;;;;;;11.33;5.50;;;11.80;99.90;;;;;;5052095;28;20450;-38
2021/08/24 11:04:50;;;;;;;6.75;5.45;;;11.80;99.90;;;;;;5039284;28;20457;-40
2021/08/24 11:07:35;;;;;;;8.40;3.80;;;11.80;99.90;;;;;;5057944;28;20210;-41
2021/08/24 11:10:34;;;;;;;5.63;4.18;;;11.70;99.90;;;;;;5059140;28;20452;-39
2021/08/24 11:13:16;;;;;;;7.77;5.30;;;11.70;99.90;;;;;;5042441;28;20202;-38
2021/08/24 11:15:55;;;;;;;6.05;4.68;;;11.70;99.90;;;;;;5044869;28;20460;-39
2021/08/24 11:18:39;;;;;;;5.78;4.70;;;11.60;99.90;;;;;;5059371;28;20318;-40
2021/08/24 11:21:20;;;;;;;5.85;4.90;;;11.60;99.90;;;;;;5057924;28;20362;-36
2021/08/24 11:24:04;;;;;;;5.80;4.90;;;11.60;99.90;;;;;;5039707;28;20206;-36
2021/08/24 11:26:41;;;;;;;6.63;4.88;;;11.60;99.90;;;;;;5038640;28;20540;-40
2021/08/24 11:29:30;;;;;;;5.37;4.87;;;11.50;99.90;;;;;;5046744;28;20237;-38
2021/08/24 11:32:10;;;;;;;9.07;5.05;;;11.50;99.90;;;;;;5062071;28;20490;-38
2021/08/24 11:34:47;;;;;;;8.20;5.60;;;11.50;99.90;;;;;;5054812;28;20246;-38
2021/08/24 11:37:22;;;;;;;8.77;5.63;;;11.50;99.90;;;;;;5042530;28;20317;-38
2021/08/24 11:39:58;;;;;;;6.50;5.00;;;11.50;99.90;;;;;;5043168;28;20202;-39
2021/08/24 11:42:33;;;;;;;8.00;5.13;;;11.60;99.90;;;;;;5054418;28;20233;-38
2021/08/24 11:45:07;;;;;;;9.27;5.22;;;11.60;99.90;;;;;;5046150;28;20209;-37
2021/08/24 11:47:43;;;;;;;9.60;5.27;;;11.50;99.90;;;;;;5031195;28;20190;-38
2021/08/24 11:50:20;;;;;;;5.85;5.00;;;11.60;99.90;;;;;;5060959;28;20945;-39
2021/08/24 11:52:57;;;;;;;6.68;5.43;;;11.50;99.90;;;;;;5061485;28;20308;-38
2021/08/24 11:55:34;;;;;;;10.55;6.15;;;11.50;99.90;;;;;;5061447;28;20198;-38
2021/08/24 11:58:10;;;;;;;8.85;5.78;;;11.50;99.90;;;;;;5061446;28;20218;-38
2021/08/24 12:00:42;;;;;;;7.30;5.30;;;11.40;99.90;;;;;;5055397;28;20220;-42
2021/08/24 12:03:19;;;;;;;9.27;5.75;;;11.40;99.90;;;;;;5045660;28;20590;-38
2021/08/24 12:05:55;;;;;;;6.97;5.95;;;11.30;99.90;;;;;;5027046;28;20194;-39
2021/08/24 12:08:27;;;;;;;9.68;5.32;;;11.30;99.90;;;;;;5041734;28;20249;-40
2021/08/24 12:11:06;;;;;;;8.30;4.97;;;11.40;99.90;;;;;;5056499;28;20251;-39
2021/08/24 12:13:40;;;;;;;9.15;6.18;;;11.40;99.90;;;;;;5042501;28;20260;-38
2021/08/24 12:16:30;;;;;;;8.85;5.22;;;11.30;99.90;;;;;;5041953;28;20279;-37
2021/08/24 12:19:19;;;;;;;6.93;6.18;;;11.30;99.90;;;;;;5042015;28;20245;-38
2021/08/24 12:21:55;;;;;;;7.40;5.15;;;11.40;99.90;;;;;;5025505;28;20255;-38
2021/08/24 12:24:53;;;;;;;10.80;6.13;;;11.30;99.90;;;;;;5051290;28;20225;-37
2021/08/24 12:27:52;;;;;;;7.93;5.72;;;11.30;99.90;;;;;;5030169;28;20246;-37
2021/08/24 12:30:26;;;;;;;10.13;6.30;;;11.30;99.90;;;;;;5052398;28;20245;-37
2021/08/24 12:33:39;;;;;;;6.57;5.32;;;11.30;99.90;;;;;;5060895;28;20202;-41
2021/08/24 12:36:56;;;;;;;8.88;6.07;;;11.30;99.90;;;;;;5061169;28;20205;-37
2021/08/24 12:39:43;;;;;;;5.32;4.50;;;11.30;99.90;;;;;;5037147;28;20306;-36
2021/08/24 12:42:31;;;;;;;8.27;5.85;;;11.20;99.90;;;;;;5041374;28;20258;-38
2021/08/24 12:45:32;;;;;;;7.93;5.50;;;11.10;99.90;;;;;;5057427;28;20206;-37
2021/08/24 12:48:16;;;;;;;12.48;5.65;;;11.10;99.90;;;;;;5081787;28;20198;-38
2021/08/24 12:51:30;;;;;;;11.63;5.53;;;11.10;99.90;;;;;;5070350;28;20201;-37
2021/08/24 12:54:05;;;;;;;11.40;6.10;;;11.00;99.90;;;;;;5046911;28;20729;-37
2021/08/24 12:56:44;;;;;;;10.00;5.63;;;11.10;99.90;;;;;;5061503;28;20668;-37
2021/08/24 12:59:34;;;;;;;10.77;6.40;;;11.00;99.90;;;;;;5063011;28;20532;-38
2021/08/24 13:02:27;;;;;;;9.38;6.28;;;11.00;99.90;;;;;;5080221;28;20224;-36
2021/08/24 13:05:02;;;;;;;9.60;5.93;;;10.90;99.90;;;;;;5081561;28;20221;-37
2021/08/24 13:07:43;;;;;;;9.15;6.28;;;11.00;99.90;;;;;;5081425;28;20218;-38
2021/08/24 13:10:26;;;;;;;9.25;6.28;;;11.00;99.90;;;;;;5072793;28;20197;-37
2021/08/24 13:12:57;;;;;;;10.40;6.22;;;11.00;99.90;;;;;;5061613;28;20222;-38
2021/08/24 13:15:55;;;;;;;8.88;6.03;;;11.00;99.90;;;;;;5061426;28;20325;-36
2021/08/24 13:18:32;;;;;;;11.05;6.15;;;11.00;99.90;;;;;;5061606;28;20261;-36
2021/08/24 13:24:16;;;;;;;10.65;6.10;;;10.90;99.90;;;;;;5047591;28;20230;-37
2021/08/24 13:26:55;;;;;;;9.65;5.95;;;10.90;99.90;;;;;;5040406;28;20237;-37
2021/08/24 13:29:29;;;;;;;11.77;6.60;;;10.90;99.90;;;;;;5031908;28;20198;-36
2021/08/24 13:32:04;;;;;;;7.35;5.80;;;10.80;99.90;;;;;;5052797;28;20194;-36
2021/08/24 13:34:44;;;;;;;10.52;6.35;;;10.90;99.90;;;;;;5057805;28;20197;-37